Time;durP1;ratioP1;P1;durP2;ratioP2;P2;SDS_P1;SDS_P2;PMS_P1;PMS_P2;Temp;Humidity;BMP_temperature;BMP_pressure;BME280_temperature;BME280_humidity;BME280_pressure;Samples;Min_cycle;Max_cycle;Signal;HPM_P1;HPM_P2
2022/04/29 00:00:41;;;;;;;6.50;5.60;;;;;;;;;;5033355;28;20315;-84
2022/04/29 00:03:09;;;;;;;5.73;5.23;;;;;;;;;;5032454;28;20207;-84
2022/04/29 00:05:36;;;;;;;6.03;5.33;;;;;;;;;;5031941;28;20229;-84
2022/04/29 00:08:03;;;;;;;5.87;5.20;;;;;;;;;;5032570;28;20261;-84
2022/04/29 00:10:31;;;;;;;6.33;5.73;;;;;;;;;;5032030;28;20242;-84
2022/04/29 00:12:59;;;;;;;7.53;5.20;;;;;;;;;;5032354;28;20227;-84
2022/04/29 00:15:28;;;;;;;6.47;4.87;;;;;;;;;;5037054;28;20321;-84
2022/04/29 00:17:55;;;;;;;6.17;5.57;;;;;;;;;;5036506;28;20698;-84
2022/04/29 00:20:22;;;;;;;6.50;5.40;;;;;;;;;;5032406;28;20231;-84
2022/04/29 00:22:50;;;;;;;5.67;5.13;;;;;;;;;;5031636;28;20251;-84
2022/04/29 00:25:17;;;;;;;6.13;5.30;;;;;;;;;;5031348;28;20238;-84
2022/04/29 00:27:44;;;;;;;6.23;5.63;;;;;;;;;;5031857;28;20203;-84
2022/04/29 00:30:12;;;;;;;6.00;5.43;;;;;;;;;;5031567;28;20242;-84
2022/04/29 00:32:41;;;;;;;6.00;5.50;;;;;;;;;;5032632;28;20230;-84
2022/04/29 00:35:09;;;;;;;6.13;5.53;;;;;;;;;;5031362;28;20235;-85
2022/04/29 00:37:43;;;;;;;6.20;5.47;;;;;;;;;;5031984;28;20225;-84
2022/04/29 00:40:12;;;;;;;5.80;5.30;;;;;;;;;;5031103;28;20242;-84
2022/04/29 00:42:39;;;;;;;8.03;5.47;;;;;;;;;;5032357;28;20230;-84
2022/04/29 00:45:07;;;;;;;6.40;5.17;;;;;;;;;;5031435;28;20238;-84
2022/04/29 00:47:34;;;;;;;5.30;4.77;;;;;;;;;;5032382;28;20207;-84
2022/04/29 00:50:02;;;;;;;5.73;5.17;;;;;;;;;;5031459;28;20706;-84
2022/04/29 00:52:32;;;;;;;5.70;5.07;;;;;;;;;;5034363;28;20237;-83
2022/04/29 00:55:01;;;;;;;5.80;5.30;;;;;;;;;;5031741;28;20288;-83
2022/04/29 00:57:30;;;;;;;9.43;5.40;;;;;;;;;;5031768;28;20245;-83
2022/04/29 01:00:01;;;;;;;6.93;5.40;;;;;;;;;;5031330;28;20230;-82
2022/04/29 01:02:28;;;;;;;5.60;5.10;;;;;;;;;;5030673;28;20706;-82
2022/04/29 01:05:01;;;;;;;6.17;5.37;;;;;;;;;;5031670;28;20242;-83
2022/04/29 01:07:30;;;;;;;5.73;5.13;;;;;;;;;;5030014;28;20210;-83
2022/04/29 01:09:58;;;;;;;6.07;5.47;;;;;;;;;;5012873;28;20708;-83
2022/04/29 01:12:25;;;;;;;5.50;5.00;;;;;;;;;;5015844;28;20236;-83
2022/04/29 01:14:54;;;;;;;5.87;5.37;;;;;;;;;;5014969;28;20254;-82
2022/04/29 01:17:21;;;;;;;5.93;5.33;;;;;;;;;;5028865;28;20206;-83
2022/04/29 01:19:48;;;;;;;6.73;6.03;;;;;;;;;;5014712;28;20242;-82
2022/04/29 01:22:17;;;;;;;14.63;6.40;;;;;;;;;;5015821;28;20235;-82
2022/04/29 01:24:44;;;;;;;8.67;6.03;;;;;;;;;;5014719;28;20699;-82
2022/04/29 01:27:12;;;;;;;6.67;5.83;;;;;;;;;;5015429;28;20203;-83
2022/04/29 01:29:40;;;;;;;8.77;6.27;;;;;;;;;;5033461;28;20250;-82
2022/04/29 01:32:09;;;;;;;6.77;6.03;;;;;;;;;;5035139;28;20599;-82
2022/04/29 01:34:36;;;;;;;16.20;9.20;;;;;;;;;;5034881;28;20231;-83
2022/04/29 01:37:03;;;;;;;8.40;7.00;;;;;;;;;;5035164;28;20214;-82
2022/04/29 01:39:31;;;;;;;8.37;6.77;;;;;;;;;;5015197;28;20241;-83
2022/04/29 01:41:59;;;;;;;8.07;6.23;;;;;;;;;;5035004;28;20239;-82
2022/04/29 01:44:26;;;;;;;7.10;6.50;;;;;;;;;;5034610;28;20286;-83
2022/04/29 01:46:53;;;;;;;7.63;6.53;;;;;;;;;;5044382;28;20199;-83
2022/04/29 01:49:20;;;;;;;7.20;5.93;;;;;;;;;;5035807;28;20238;-82
2022/04/29 01:51:47;;;;;;;7.33;5.80;;;;;;;;;;5035019;28;20272;-82
2022/04/29 01:54:14;;;;;;;8.40;6.33;;;;;;;;;;5034392;28;20230;-82
2022/04/29 01:56:42;;;;;;;8.33;6.17;;;;;;;;;;5033807;28;20210;-82
2022/04/29 01:59:09;;;;;;;7.90;6.07;;;;;;;;;;5033720;28;20695;-83
2022/04/29 02:01:37;;;;;;;6.60;6.00;;;;;;;;;;5034205;28;20865;-83
2022/04/29 02:04:04;;;;;;;6.40;5.43;;;;;;;;;;5034155;28;20610;-82
2022/04/29 02:06:31;;;;;;;7.27;5.93;;;;;;;;;;5042283;28;20214;-82
2022/04/29 02:08:58;;;;;;;7.50;5.70;;;;;;;;;;5032933;28;20600;-83
2022/04/29 02:11:25;;;;;;;6.00;5.40;;;;;;;;;;5034136;28;20223;-83
2022/04/29 02:13:54;;;;;;;6.93;6.23;;;;;;;;;;5033652;28;20223;-83
2022/04/29 02:16:21;;;;;;;7.13;6.43;;;;;;;;;;5033780;28;20215;-83
2022/04/29 02:18:48;;;;;;;8.13;6.60;;;;;;;;;;5033620;28;20230;-82
2022/04/29 02:21:15;;;;;;;9.07;6.53;;;;;;;;;;5034223;28;20230;-83
2022/04/29 02:23:43;;;;;;;7.07;6.00;;;;;;;;;;5034017;28;20199;-82
2022/04/29 02:26:10;;;;;;;7.10;6.40;;;;;;;;;;5033368;28;20226;-82
2022/04/29 02:28:37;;;;;;;12.43;7.10;;;;;;;;;;5033196;28;20667;-83
2022/04/29 02:31:05;;;;;;;13.97;6.90;;;;;;;;;;5014604;28;20239;-83
2022/04/29 02:33:32;;;;;;;7.77;6.13;;;;;;;;;;5014879;28;20211;-82
2022/04/29 02:36:01;;;;;;;6.97;6.27;;;;;;;;;;5013778;28;20838;-82
2022/04/29 02:38:28;;;;;;;7.87;7.07;;;;;;;;;;5014680;28;20365;-83
2022/04/29 02:40:55;;;;;;;8.43;6.17;;;;;;;;;;5031591;28;20226;-83
2022/04/29 02:43:23;;;;;;;6.77;5.70;;;;;;;;;;5033468;28;20211;-83
2022/04/29 02:45:50;;;;;;;6.83;6.23;;;;;;;;;;5015663;28;20259;-82
2022/04/29 02:48:19;;;;;;;6.77;5.90;;;;;;;;;;5013269;28;20207;-82
2022/04/29 02:50:46;;;;;;;6.50;5.80;;;;;;;;;;5012620;28;20266;-82
2022/04/29 02:53:13;;;;;;;6.80;6.20;;;;;;;;;;5013754;28;20208;-82
2022/04/29 02:55:40;;;;;;;8.40;5.87;;;;;;;;;;5013254;28;20587;-82
2022/04/29 02:58:07;;;;;;;6.27;5.67;;;;;;;;;;5013531;28;20227;-82
2022/04/29 03:00:34;;;;;;;6.37;5.67;;;;;;;;;;5013318;28;20246;-82
2022/04/29 03:03:01;;;;;;;7.83;6.13;;;;;;;;;;5013493;28;20243;-82
2022/04/29 03:05:29;;;;;;;6.90;6.10;;;;;;;;;;5012561;28;20242;-82
2022/04/29 03:07:56;;;;;;;6.07;5.47;;;;;;;;;;5013128;28;20269;-82
2022/04/29 03:10:23;;;;;;;6.77;5.87;;;;;;;;;;5026096;28;20254;-82
2022/04/29 03:12:50;;;;;;;7.60;5.80;;;;;;;;;;5033396;28;20292;-82
2022/04/29 03:15:18;;;;;;;6.63;5.97;;;;;;;;;;5020218;28;20257;-82
2022/04/29 03:20:31;;;;;;;7.27;5.60;;;;;;;;;;5027412;28;20360;-82
2022/04/29 03:22:58;;;;;;;6.23;5.67;;;;;;;;;;5033526;28;20237;-82
2022/04/29 03:25:25;;;;;;;7.10;6.00;;;;;;;;;;5018781;28;20235;-82
2022/04/29 03:27:52;;;;;;;7.30;6.27;;;;;;;;;;5013756;28;20579;-82
2022/04/29 03:30:19;;;;;;;7.10;6.40;;;;;;;;;;5025928;28;20245;-82
2022/04/29 03:32:53;;;;;;;7.27;6.57;;;;;;;;;;5033212;28;20219;-82
2022/04/29 03:35:20;;;;;;;7.17;6.47;;;;;;;;;;5020064;28;20257;-82
2022/04/29 03:37:51;;;;;;;9.67;7.17;;;;;;;;;;5014036;28;20204;-82
2022/04/29 03:40:18;;;;;;;8.07;6.83;;;;;;;;;;5026967;28;20317;-81
2022/04/29 03:42:47;;;;;;;7.60;6.90;;;;;;;;;;5034298;28;20597;-82
2022/04/29 03:45:14;;;;;;;7.40;6.80;;;;;;;;;;5026593;28;20600;-82
2022/04/29 03:47:41;;;;;;;8.20;7.00;;;;;;;;;;5035084;28;20191;-84
2022/04/29 03:50:09;;;;;;;7.57;6.10;;;;;;;;;;5036574;28;20219;-84
2022/04/29 03:52:45;;;;;;;5.80;5.30;;;;;;;;;;5017286;28;20238;-83
2022/04/29 03:55:13;;;;;;;6.23;5.73;;;;;;;;;;5015154;28;20261;-84
2022/04/29 03:57:40;;;;;;;6.77;6.17;;;;;;;;;;5014885;28;20211;-83
2022/04/29 04:00:08;;;;;;;6.53;5.93;;;;;;;;;;5025385;28;20242;-83
2022/04/29 04:02:35;;;;;;;7.43;6.73;;;;;;;;;;5070249;23;20248;-87
2022/04/29 04:05:02;;;;;;;7.33;6.57;;;;;;;;;;5044562;28;20600;-87
2022/04/29 04:07:29;;;;;;;9.10;6.80;;;;;;;;;;5053367;28;20206;-87
2022/04/29 04:09:56;;;;;;;11.23;6.87;;;;;;;;;;5052838;28;20247;-87
2022/04/29 04:12:25;;;;;;;8.60;7.33;;;;;;;;;;5053735;28;20224;-87
2022/04/29 04:14:52;;;;;;;6.90;6.23;;;;;;;;;;5053237;28;20229;-87
2022/04/29 04:17:19;;;;;;;8.93;6.40;;;;;;;;;;5053688;28;20682;-87
2022/04/29 04:19:46;;;;;;;9.93;7.10;;;;;;;;;;5053016;28;20243;-87
2022/04/29 04:22:13;;;;;;;7.30;6.60;;;;;;;;;;5053585;28;20226;-86
2022/04/29 04:24:40;;;;;;;6.67;6.07;;;;;;;;;;5053043;28;20244;-86
2022/04/29 04:27:07;;;;;;;7.80;7.00;;;;;;;;;;5053629;28;20213;-87
2022/04/29 04:29:36;;;;;;;6.37;5.80;;;;;;;;;;5052960;28;20237;-87
2022/04/29 04:32:03;;;;;;;7.93;6.90;;;;;;;;;;5053393;28;20590;-87
2022/04/29 04:37:15;;;;;;;7.03;6.43;;;;;;;;;;5053464;28;20200;-87
2022/04/29 04:39:42;;;;;;;9.83;6.53;;;;;;;;;;5052726;28;20242;-86
2022/04/29 04:42:09;;;;;;;6.93;6.30;;;;;;;;;;5053167;28;20225;-88
2022/04/29 04:44:38;;;;;;;7.13;6.47;;;;;;;;;;5055741;28;20234;-87
2022/04/29 04:47:06;;;;;;;7.57;6.53;;;;;;;;;;5057178;28;20208;-86
2022/04/29 04:49:33;;;;;;;9.43;7.10;;;;;;;;;;5057128;28;20241;-86
2022/04/29 04:52:00;;;;;;;10.10;7.30;;;;;;;;;;5057142;28;20589;-87
2022/04/29 04:54:27;;;;;;;10.53;7.77;;;;;;;;;;5056583;28;20230;-86
2022/04/29 04:56:54;;;;;;;8.70;7.70;;;;;;;;;;5056864;28;20281;-87
2022/04/29 04:59:21;;;;;;;7.97;7.17;;;;;;;;;;5056687;28;20242;-87
2022/04/29 05:01:50;;;;;;;7.90;7.17;;;;;;;;;;5055988;28;20725;-87
2022/04/29 05:04:17;;;;;;;8.97;7.43;;;;;;;;;;5056007;28;20229;-87
2022/04/29 05:06:44;;;;;;;7.80;7.07;;;;;;;;;;5060117;28;20223;-86
2022/04/29 05:09:11;;;;;;;8.17;7.43;;;;;;;;;;5071504;28;20240;-88
2022/04/29 05:11:38;;;;;;;9.13;8.23;;;;;;;;;;5074589;28;20226;-88
2022/04/29 05:14:05;;;;;;;12.07;10.17;;;;;;;;;;5072908;28;20264;-87
2022/04/29 05:16:32;;;;;;;11.23;9.53;;;;;;;;;;5067541;28;20206;-88
2022/04/29 05:19:01;;;;;;;15.23;11.17;;;;;;;;;;5057333;28;20270;-88
2022/04/29 05:21:28;;;;;;;12.57;10.93;;;;;;;;;;5057041;28;20639;-88
2022/04/29 05:23:55;;;;;;;15.30;11.40;;;;;;;;;;5056341;28;20199;-88
2022/04/29 05:26:33;;;;;;;15.13;11.90;;;;;;;;;;5057236;28;20208;-87
2022/04/29 05:29:00;;;;;;;17.87;13.13;;;;;;;;;;5055345;28;20186;-88
2022/04/29 05:31:27;;;;;;;19.43;14.17;;;;;;;;;;5057075;28;20230;-88
2022/04/29 05:33:55;;;;;;;18.37;14.17;;;;;;;;;;5052712;28;20285;-87
2022/04/29 05:36:24;;;;;;;15.57;13.73;;;;;;;;;;5037310;28;20210;-88
2022/04/29 05:44:21;;;;;;;15.03;12.53;;;;;;;;;;5056125;28;20245;-88
2022/04/29 05:46:48;;;;;;;15.03;12.60;;;;;;;;;;5057003;28;20299;-87
2022/04/29 05:49:15;;;;;;;14.97;11.63;;;;;;;;;;5055452;28;20701;-87
2022/04/29 05:51:43;;;;;;;16.70;11.40;;;;;;;;;;5046295;28;20229;-87
2022/04/29 05:54:10;;;;;;;13.43;11.33;;;;;;;;;;5056091;28;20238;-87
2022/04/29 05:56:48;;;;;;;12.33;11.13;;;;;;;;;;5055349;28;20213;-87
2022/04/29 05:59:15;;;;;;;12.50;10.57;;;;;;;;;;5055410;28;20755;-88
2022/04/29 06:01:42;;;;;;;12.47;10.17;;;;;;;;;;5055792;28;20713;-87
2022/04/29 06:04:09;;;;;;;14.03;11.17;;;;;;;;;;5055561;28;20237;-88
2022/04/29 06:06:36;;;;;;;12.73;11.40;;;;;;;;;;5056422;28;20206;-87
2022/04/29 06:09:31;;;;;;;13.07;11.57;;;;;;;;;;5055641;28;20241;-88
2022/04/29 06:11:59;;;;;;;14.23;11.10;;;;;;;;;;5055842;28;20308;-87
2022/04/29 06:14:26;;;;;;;12.07;10.77;;;;;;;;;;5053985;28;20241;-87
2022/04/29 06:16:53;;;;;;;12.10;10.87;;;;;;;;;;5056254;28;20217;-88
2022/04/29 06:19:20;;;;;;;12.43;11.13;;;;;;;;;;5055277;28;20234;-87
2022/04/29 06:21:47;;;;;;;12.53;9.87;;;;;;;;;;5049876;28;20229;-86
2022/04/29 06:24:14;;;;;;;11.50;9.43;;;;;;;;;;5055019;28;20237;-85
2022/04/29 06:26:41;;;;;;;12.47;9.97;;;;;;;;;;5055762;28;20281;-88
2022/04/29 06:29:10;;;;;;;12.20;10.03;;;;;;;;;;5055282;28;20241;-87
2022/04/29 06:31:37;;;;;;;11.83;9.67;;;;;;;;;;5055526;28;20225;-87
2022/04/29 06:34:04;;;;;;;10.13;9.10;;;;;;;;;;5055562;28;20241;-87
2022/04/29 06:36:31;;;;;;;10.73;9.40;;;;;;;;;;5055841;28;20210;-88
2022/04/29 06:39:06;;;;;;;10.50;9.50;;;;;;;;;;5054663;28;20281;-88
2022/04/29 06:41:35;;;;;;;10.50;9.50;;;;;;;;;;5055135;28;20221;-88
2022/04/29 06:44:02;;;;;;;9.70;8.33;;;;;;;;;;5051750;28;20658;-88
2022/04/29 06:46:30;;;;;;;9.33;8.40;;;;;;;;;;5035623;28;20218;-88
2022/04/29 06:48:58;;;;;;;9.63;8.03;;;;;;;;;;5034817;28;20215;-88
2022/04/29 06:51:25;;;;;;;8.57;7.80;;;;;;;;;;5035688;28;20231;-88
2022/04/29 06:53:52;;;;;;;9.17;8.13;;;;;;;;;;5035314;28;20211;-87
2022/04/29 06:56:19;;;;;;;9.07;8.17;;;;;;;;;;5035518;28;20212;-87
2022/04/29 06:59:22;;;;;;;8.87;7.67;;;;;;;;;;5034810;28;20206;-88
2022/04/29 07:01:50;;;;;;;8.27;7.47;;;;;;;;;;5047322;28;20240;-88
2022/04/29 07:04:17;;;;;;;8.43;7.23;;;;;;;;;;5052890;28;20237;-88
2022/04/29 07:06:45;;;;;;;8.50;7.60;;;;;;;;;;5034396;28;20215;-88
2022/04/29 07:09:12;;;;;;;8.73;7.30;;;;;;;;;;5038160;28;20242;-88
2022/04/29 07:11:39;;;;;;;8.50;7.00;;;;;;;;;;5037744;28;20230;-87
2022/04/29 07:14:16;;;;;;;11.37;7.13;;;;;;;;;;5038589;28;20241;-88
2022/04/29 07:16:43;;;;;;;8.60;7.20;;;;;;;;;;5036673;28;20190;-88
2022/04/29 07:19:11;;;;;;;10.27;7.77;;;;;;;;;;5035517;28;20260;-88
2022/04/29 07:21:38;;;;;;;8.40;7.37;;;;;;;;;;5036649;28;20221;-88
2022/04/29 07:24:06;;;;;;;9.03;6.93;;;;;;;;;;5037357;28;20242;-88
2022/04/29 07:26:35;;;;;;;10.30;7.23;;;;;;;;;;5044365;28;20198;-88
2022/04/29 07:29:02;;;;;;;8.50;6.90;;;;;;;;;;5057171;28;20268;-88
2022/04/29 07:31:29;;;;;;;8.20;6.90;;;;;;;;;;5055858;28;20229;-88
2022/04/29 07:33:56;;;;;;;7.97;7.23;;;;;;;;;;5054063;28;20690;-88
2022/04/29 07:42:06;;;;;;;9.30;7.43;;;;;;;;;;5054258;28;20717;-87
2022/04/29 07:44:33;;;;;;;11.40;7.07;;;;;;;;;;5053900;28;20233;-86
2022/04/29 07:47:01;;;;;;;9.30;7.40;;;;;;;;;;5054772;28;20202;-87
2022/04/29 07:49:28;;;;;;;10.33;7.57;;;;;;;;;;5053797;28;20245;-87
2022/04/29 07:51:57;;;;;;;9.63;7.13;;;;;;;;;;5054187;28;20229;-86
2022/04/29 07:54:24;;;;;;;7.83;6.97;;;;;;;;;;5053569;28;20237;-86
2022/04/29 07:56:52;;;;;;;7.07;6.43;;;;;;;;;;5053677;28;20202;-87
2022/04/29 07:59:20;;;;;;;8.17;7.00;;;;;;;;;;5053055;28;20233;-86
2022/04/29 08:01:47;;;;;;;8.83;7.30;;;;;;;;;;5053526;28;20568;-87
2022/04/29 08:04:14;;;;;;;7.77;6.97;;;;;;;;;;5053287;28;20244;-87
2022/04/29 08:06:41;;;;;;;8.63;7.27;;;;;;;;;;5053645;28;20214;-86
2022/04/29 08:09:10;;;;;;;8.00;7.20;;;;;;;;;;5052888;28;20238;-87
2022/04/29 08:11:37;;;;;;;10.03;7.10;;;;;;;;;;5053308;28;20233;-86
2022/04/29 08:14:06;;;;;;;8.03;6.87;;;;;;;;;;5052801;28;20295;-86
2022/04/29 08:16:35;;;;;;;7.97;7.17;;;;;;;;;;5053498;28;20229;-86
2022/04/29 08:19:02;;;;;;;8.03;6.80;;;;;;;;;;5054968;28;20289;-86
2022/04/29 08:21:29;;;;;;;7.93;6.97;;;;;;;;;;5057004;28;20253;-86
2022/04/29 08:23:56;;;;;;;7.87;7.17;;;;;;;;;;5057343;28;20220;-86
2022/04/29 08:26:24;;;;;;;8.07;7.27;;;;;;;;;;5057303;28;20296;-86
2022/04/29 08:28:54;;;;;;;7.77;7.07;;;;;;;;;;5057064;28;20349;-86
2022/04/29 08:31:21;;;;;;;10.03;7.23;;;;;;;;;;5057006;28;20222;-86
2022/04/29 08:33:48;;;;;;;8.90;7.20;;;;;;;;;;5056851;28;20202;-86
2022/04/29 08:36:16;;;;;;;7.43;6.80;;;;;;;;;;5058621;28;20210;-86
2022/04/29 08:38:43;;;;;;;11.67;7.40;;;;;;;;;;5059912;28;20202;-86
2022/04/29 08:41:10;;;;;;;8.70;7.37;;;;;;;;;;5057828;28;20221;-87
2022/04/29 08:43:40;;;;;;;8.10;7.30;;;;;;;;;;5057026;28;20237;-86
2022/04/29 08:46:08;;;;;;;7.57;6.80;;;;;;;;;;5056161;28;20656;-86
2022/04/29 08:48:36;;;;;;;7.77;6.93;;;;;;;;;;5056968;28;20206;-85
2022/04/29 08:51:03;;;;;;;8.10;6.43;;;;;;;;;;5056586;28;20234;-85
2022/04/29 08:53:34;;;;;;;7.87;6.00;;;;;;;;;;5056016;28;20201;-87
2022/04/29 08:58:48;;;;;;;8.23;5.73;;;;;;;;;;5055027;28;20197;-87
2022/04/29 09:01:16;;;;;;;8.53;6.37;;;;;;;;;;5057000;28;20230;-86
2022/04/29 09:03:44;;;;;;;6.60;6.00;;;;;;;;;;5056084;28;20197;-86
2022/04/29 09:06:12;;;;;;;6.53;5.87;;;;;;;;;;5059023;28;20213;-87
2022/04/29 09:08:40;;;;;;;8.23;6.03;;;;;;;;;;5057939;28;20206;-87
2022/04/29 09:11:08;;;;;;;6.80;5.47;;;;;;;;;;5058844;28;20236;-86
2022/04/29 09:13:37;;;;;;;6.63;5.77;;;;;;;;;;5056353;28;20206;-87
2022/04/29 09:16:12;;;;;;;5.70;5.17;;;;;;;;;;5059182;28;20233;-86
2022/04/29 09:18:42;;;;;;;5.93;5.30;;;;;;;;;;5056901;28;20244;-87
2022/04/29 09:21:13;;;;;;;5.80;5.20;;;;;;;;;;5055461;28;20237;-87
2022/04/29 09:23:44;;;;;;;6.43;4.80;;;;;;;;;;5058779;28;20201;-85
2022/04/29 09:26:20;;;;;;;6.63;5.10;;;;;;;;;;5058904;28;20630;-87
2022/04/29 09:28:49;;;;;;;5.75;5.22;;;;;;;;;;5056483;28;20197;-87
2022/04/29 09:31:17;;;;;;;7.28;4.90;;;;;;;;;;5056626;28;20202;-87
2022/04/29 09:33:53;;;;;;;6.10;5.35;;;;;;;;;;5055453;28;20209;-84
2022/04/29 09:36:22;;;;;;;5.43;4.93;;;;;;;;;;5055452;28;20251;-85
2022/04/29 09:41:37;;;;;;;7.07;4.85;;;;;;;;;;5055322;28;20280;-85
2022/04/29 09:44:04;;;;;;;5.10;4.32;;;;;;;;;;5059966;28;20233;-85
2022/04/29 09:46:33;;;;;;;5.82;4.57;;;;;;;;;;5054182;28;20202;-86
2022/04/29 09:49:02;;;;;;;6.30;4.95;;;;;;;;;;5055103;28;21882;-87
2022/04/29 09:51:40;;;;;;;5.53;4.88;;;;;;;;;;5054889;28;20222;-86
2022/04/29 09:54:11;;;;;;;5.65;4.95;;;;;;;;;;5051331;28;20233;-88
2022/04/29 09:56:44;;;;;;;5.90;5.13;;;;;;;;;;5055130;28;20213;-88
2022/04/29 09:59:11;;;;;;;5.05;4.55;;;;;;;;;;5054590;28;20295;-86
2022/04/29 10:01:43;;;;;;;8.32;4.68;;;;;;;;;;5055428;28;20647;-89
2022/04/29 10:04:12;;;;;;;4.63;4.22;;;;;;;;;;5071720;23;20716;-82
2022/04/29 10:06:44;;;;;;;5.45;4.97;;;;;;;;;;5028308;28;20203;-82
2022/04/29 10:09:12;;;;;;;5.40;4.93;;;;;;;;;;5013963;28;20235;-82
2022/04/29 10:11:39;;;;;;;5.65;4.40;;;;;;;;;;5014382;28;20207;-82
2022/04/29 10:14:06;;;;;;;5.25;4.35;;;;;;;;;;5014528;28;20239;-82
2022/04/29 10:16:34;;;;;;;4.63;4.22;;;;;;;;;;5033815;28;20276;-83
2022/04/29 10:21:51;;;;;;;4.78;4.40;;;;;;;;;;5051190;28;20612;-83
2022/04/29 10:24:19;;;;;;;4.88;4.13;;;;;;;;;;5037140;28;20329;-82
2022/04/29 10:26:49;;;;;;;4.60;4.18;;;;;;;;;;5034812;28;20198;-83
2022/04/29 10:29:16;;;;;;;7.90;3.50;;;;;;;;;;5047982;28;20257;-82
2022/04/29 10:31:43;;;;;;;4.43;4.03;;;;;;;;;;5054577;28;20293;-83
2022/04/29 10:34:29;;;;;;;4.32;3.92;;;;;;;;;;5056522;28;20249;-83
2022/04/29 10:36:57;;;;;;;4.70;3.67;;;;;;;;;;5054914;28;20226;-82
2022/04/29 10:39:24;;;;;;;3.80;3.50;;;;;;;;;;5050745;28;20625;-82
2022/04/29 10:42:09;;;;;;;4.30;3.88;;;;;;;;;;5051270;28;20215;-82
2022/04/29 10:44:37;;;;;;;4.43;3.88;;;;;;;;;;5060192;28;20290;-82
2022/04/29 10:47:36;;;;;;;4.03;3.70;;;;;;;;;;5055218;28;20214;-82
2022/04/29 10:50:22;;;;;;;4.03;3.35;;;;;;;;;;5050488;28;20243;-81
2022/04/29 10:52:59;;;;;;;3.03;2.72;;;;;;;;;;5049964;28;20202;-82
2022/04/29 10:55:27;;;;;;;3.40;3.10;;;;;;;;;;5049479;28;20241;-82
2022/04/29 10:57:54;;;;;;;3.47;2.80;;;;;;;;;;5043873;28;20301;-82
2022/04/29 11:00:23;;;;;;;3.47;3.17;;;;;;;;;;5039844;28;20234;-82
2022/04/29 11:02:50;;;;;;;2.60;2.40;;;;;;;;;;5033060;28;20206;-82
2022/04/29 11:05:36;;;;;;;2.88;2.50;;;;;;;;;;5032584;28;20238;-82
2022/04/29 11:08:09;;;;;;;2.90;2.55;;;;;;;;;;5032730;28;20608;-83
2022/04/29 11:10:55;;;;;;;2.63;2.42;;;;;;;;;;5032062;28;20238;-82
2022/04/29 11:13:23;;;;;;;3.10;2.70;;;;;;;;;;5044492;28;20208;-83
2022/04/29 11:15:52;;;;;;;2.95;2.75;;;;;;;;;;5032339;28;20257;-82
2022/04/29 11:18:22;;;;;;;4.95;2.75;;;;;;;;;;5021276;28;20207;-83
2022/04/29 11:20:50;;;;;;;3.90;2.55;;;;;;;;;;5030108;28;20238;-82
2022/04/29 11:26:12;;;;;;;3.15;2.85;;;;;;;;;;5032061;28;20312;-82
2022/04/29 11:28:39;;;;;;;3.38;2.95;;;;;;;;;;5012176;28;20662;-82
2022/04/29 11:31:08;;;;;;;3.05;2.80;;;;;;;;;;5029516;28;20236;-83
2022/04/29 11:33:35;;;;;;;3.05;2.75;;;;;;;;;;5033347;28;20765;-82
2022/04/29 11:36:03;;;;;;;3.08;2.80;;;;;;;;;;5033051;28;20248;-82
2022/04/29 11:38:32;;;;;;;3.10;2.85;;;;;;;;;;5032636;28;20219;-83
2022/04/29 11:41:00;;;;;;;2.80;2.60;;;;;;;;;;5031811;28;20280;-83
2022/04/29 11:43:28;;;;;;;4.68;2.70;;;;;;;;;;5012670;28;20207;-83
2022/04/29 11:46:05;;;;;;;3.08;2.88;;;;;;;;;;5019447;28;20227;-83
2022/04/29 11:48:32;;;;;;;2.70;2.50;;;;;;;;;;5032306;28;20737;-83
2022/04/29 11:50:59;;;;;;;3.85;2.40;;;;;;;;;;5032594;28;20226;-83
2022/04/29 11:59:34;;;;;;;2.80;2.40;;;;;;;;;;5025809;28;20301;-83
2022/04/29 12:02:02;;;;;;;2.95;2.75;;;;;;;;;;5032399;28;20227;-83
2022/04/29 12:04:29;;;;;;;3.17;2.75;;;;;;;;;;5031746;28;20321;-83
2022/04/29 12:06:57;;;;;;;2.83;2.50;;;;;;;;;;5032704;28;20659;-84
2022/04/29 12:09:31;;;;;;;2.35;2.08;;;;;;;;;;5032825;28;20265;-83
2022/04/29 12:11:58;;;;;;;3.13;2.30;;;;;;;;;;5033505;28;20234;-83
2022/04/29 12:14:25;;;;;;;4.50;2.45;;;;;;;;;;5032210;28;20316;-83
2022/04/29 12:16:54;;;;;;;2.67;2.03;;;;;;;;;;5033297;28;20237;-83
2022/04/29 12:19:22;;;;;;;4.68;2.10;;;;;;;;;;5032098;28;20644;-83
2022/04/29 12:21:56;;;;;;;2.40;2.30;;;;;;;;;;5032846;28;20322;-83
2022/04/29 12:24:23;;;;;;;2.53;2.28;;;;;;;;;;5032792;28;20248;-82
2022/04/29 12:27:04;;;;;;;2.03;1.92;;;;;;;;;;5032949;28;20230;-83
2022/04/29 12:29:31;;;;;;;2.00;1.90;;;;;;;;;;5032018;28;20702;-83
2022/04/29 12:35:06;;;;;;;2.88;2.08;;;;;;;;;;5007899;28;20606;-83
2022/04/29 12:37:33;;;;;;;3.78;2.42;;;;;;;;;;5032771;28;20424;-83
2022/04/29 12:40:04;;;;;;;3.42;2.58;;;;;;;;;;5032205;28;20234;-83
2022/04/29 12:42:31;;;;;;;2.95;2.15;;;;;;;;;;5032382;28;20284;-83
2022/04/29 12:45:11;;;;;;;2.13;2.00;;;;;;;;;;5032071;28;20285;-83
2022/04/29 12:47:40;;;;;;;3.33;2.60;;;;;;;;;;5032341;28;20214;-83
2022/04/29 12:50:23;;;;;;;2.72;2.00;;;;;;;;;;5031685;28;20238;-83
2022/04/29 12:52:50;;;;;;;3.10;2.05;;;;;;;;;;5032636;28;20289;-83
2022/04/29 12:55:17;;;;;;;2.10;2.00;;;;;;;;;;5031842;28;20239;-83
2022/04/29 12:57:44;;;;;;;3.58;2.00;;;;;;;;;;5032578;28;20215;-84
2022/04/29 13:00:12;;;;;;;4.65;2.40;;;;;;;;;;5031550;28;20791;-83
2022/04/29 13:02:40;;;;;;;3.35;2.67;;;;;;;;;;5032516;28;20230;-83
2022/04/29 13:05:08;;;;;;;2.47;2.28;;;;;;;;;;5033851;28;20472;-83
2022/04/29 13:07:35;;;;;;;2.28;2.00;;;;;;;;;;5036013;28;20222;-83
2022/04/29 13:10:03;;;;;;;3.85;2.20;;;;;;;;;;5035139;28;20237;-83
2022/04/29 13:12:30;;;;;;;2.83;2.03;;;;;;;;;;5042037;28;20201;-83
2022/04/29 13:15:09;;;;;;;3.15;1.98;;;;;;;;;;5055005;28;20238;-83
2022/04/29 13:17:36;;;;;;;3.92;2.75;;;;;;;;;;5048652;28;20198;-83
2022/04/29 13:20:08;;;;;;;2.35;2.15;;;;;;;;;;5035634;28;20238;-83
2022/04/29 13:22:35;;;;;;;2.10;2.00;;;;;;;;;;5054140;28;20205;-83
2022/04/29 13:25:02;;;;;;;2.50;2.30;;;;;;;;;;5054376;28;20797;-83
2022/04/29 13:27:30;;;;;;;4.35;2.13;;;;;;;;;;5056484;28;20289;-83
2022/04/29 13:29:57;;;;;;;2.00;1.90;;;;;;;;;;5039056;28;20234;-83
2022/04/29 13:32:24;;;;;;;2.97;2.30;;;;;;;;;;5035758;28;20199;-83
2022/04/29 13:34:52;;;;;;;2.40;2.20;;;;;;;;;;5034752;28;20261;-83
2022/04/29 13:37:21;;;;;;;2.50;2.30;;;;;;;;;;5034913;28;20207;-83
2022/04/29 13:39:48;;;;;;;2.28;2.13;;;;;;;;;;5034933;28;20320;-84
2022/04/29 13:42:15;;;;;;;2.83;2.22;;;;;;;;;;5034872;28;20318;-83
2022/04/29 13:44:43;;;;;;;2.67;2.22;;;;;;;;;;5041964;28;20265;-83
2022/04/29 13:47:10;;;;;;;2.35;2.15;;;;;;;;;;5035956;28;20301;-83
2022/04/29 13:49:37;;;;;;;3.40;2.30;;;;;;;;;;5034859;28;20706;-84
2022/04/29 13:54:47;;;;;;;2.50;2.30;;;;;;;;;;5053523;28;20241;-83
2022/04/29 13:57:14;;;;;;;2.53;2.30;;;;;;;;;;5037922;28;20210;-83
2022/04/29 13:59:41;;;;;;;2.50;2.30;;;;;;;;;;5052910;28;20237;-84
2022/04/29 14:02:09;;;;;;;2.42;2.22;;;;;;;;;;5038875;28;20229;-83
2022/04/29 14:04:36;;;;;;;3.90;2.10;;;;;;;;;;5034545;28;20229;-84
2022/04/29 14:07:03;;;;;;;2.70;2.45;;;;;;;;;;5037245;28;20206;-83
2022/04/29 14:09:30;;;;;;;4.47;2.30;;;;;;;;;;5053808;28;20237;-83
2022/04/29 14:11:59;;;;;;;2.95;2.30;;;;;;;;;;5054435;28;20202;-83
2022/04/29 14:14:26;;;;;;;4.60;2.10;;;;;;;;;;5053441;28;20603;-83
2022/04/29 14:16:54;;;;;;;2.22;2.10;;;;;;;;;;5054105;28;20218;-84
2022/04/29 14:19:22;;;;;;;3.03;2.30;;;;;;;;;;5054719;28;20240;-83
2022/04/29 14:21:49;;;;;;;2.33;2.22;;;;;;;;;;5055639;28;20230;-83
2022/04/29 14:24:16;;;;;;;2.60;2.40;;;;;;;;;;5037911;28;20675;-84
2022/04/29 14:26:43;;;;;;;2.80;2.60;;;;;;;;;;5034845;28;20213;-84
2022/04/29 14:29:11;;;;;;;2.65;2.45;;;;;;;;;;5034141;28;20238;-84
2022/04/29 14:31:38;;;;;;;2.47;2.28;;;;;;;;;;5019914;28;20225;-83
2022/04/29 14:34:05;;;;;;;2.72;2.50;;;;;;;;;;5053784;28;20250;-84
2022/04/29 14:36:33;;;;;;;2.20;2.10;;;;;;;;;;5037372;28;20213;-83
2022/04/29 14:39:00;;;;;;;2.03;1.92;;;;;;;;;;5039439;28;20233;-83
2022/04/29 14:41:28;;;;;;;2.70;2.20;;;;;;;;;;5044099;28;20210;-83
2022/04/29 14:43:57;;;;;;;3.85;2.53;;;;;;;;;;5034007;28;20223;-83
2022/04/29 14:46:28;;;;;;;4.10;2.50;;;;;;;;;;5033729;28;20336;-84
2022/04/29 14:48:56;;;;;;;3.72;2.80;;;;;;;;;;5053565;28;20206;-83
2022/04/29 14:51:23;;;;;;;3.42;2.65;;;;;;;;;;5053561;28;20202;-83
2022/04/29 14:53:50;;;;;;;5.25;2.88;;;;;;;;;;5053431;28;20233;-83
2022/04/29 14:56:19;;;;;;;3.05;2.78;;;;;;;;;;5045062;28;20252;-83
2022/04/29 14:58:46;;;;;;;4.10;2.85;;;;;;;;;;5046358;28;20216;-83
2022/04/29 15:01:13;;;;;;;3.05;2.85;;;;;;;;;;5037788;28;20202;-83
2022/04/29 15:03:41;;;;;;;5.32;2.72;;;;;;;;;;5053118;28;20630;-83
2022/04/29 15:06:08;;;;;;;5.80;2.80;;;;;;;;;;5051388;28;20218;-83
2022/04/29 15:08:35;;;;;;;5.25;2.88;;;;;;;;;;5056103;28;20226;-83
2022/04/29 15:16:31;;;;;;;3.53;2.47;;;;;;;;;;5047391;28;20346;-83
2022/04/29 15:19:00;;;;;;;2.75;2.47;;;;;;;;;;5036924;28;20569;-83
2022/04/29 15:21:27;;;;;;;3.65;2.60;;;;;;;;;;5020012;28;20209;-83
2022/04/29 15:23:54;;;;;;;2.60;2.40;;;;;;;;;;5042046;28;20221;-83
2022/04/29 15:26:21;;;;;;;2.88;2.58;;;;;;;;;;5043788;28;20209;-83
2022/04/29 15:28:48;;;;;;;2.40;2.20;;;;;;;;;;5033167;28;20213;-83
2022/04/29 15:31:15;;;;;;;2.80;2.60;;;;;;;;;;5033953;28;20206;-83
2022/04/29 15:33:42;;;;;;;6.57;2.83;;;;;;;;;;5038317;28;20290;-82